Time;durP1;ratioP1;P1;durP2;ratioP2;P2;SDS_P1;SDS_P2;PMS_P1;PMS_P2;Temp;Humidity;BMP_temperature;BMP_pressure;BME280_temperature;BME280_humidity;BME280_pressure;Samples;Min_cycle;Max_cycle;Signal;HPM_P1;HPM_P2
2022/01/03 00:01:49;;;;;;;3.40;1.02;;;;;;;10.03;73.21;98870.41;4935182;29;20107;-74
2022/01/03 00:04:16;;;;;;;1.45;1.25;;;;;;;9.95;74.60;98877.41;4933807;29;20031;-76
2022/01/03 00:06:42;;;;;;;0.50;0.50;;;;;;;9.96;74.13;98873.97;4933037;29;20465;-75
2022/01/03 00:09:08;;;;;;;1.10;0.50;;;;;;;10.00;73.13;98885.97;4927033;29;20039;-76
2022/01/03 00:11:35;;;;;;;0.77;0.77;;;;;;;10.21;72.34;98889.16;4934989;29;20028;-75
2022/01/03 00:14:01;;;;;;;0.40;0.40;;;;;;;10.48;71.43;98888.72;4935093;29;20023;-75
2022/01/03 00:16:26;;;;;;;0.50;0.50;;;;;;;10.48;71.47;98878.38;4934684;29;20023;-74
2022/01/03 00:18:53;;;;;;;1.50;0.40;;;;;;;10.53;70.68;98881.75;4934975;29;20027;-76
2022/01/03 00:21:20;;;;;;;0.30;0.30;;;;;;;10.81;70.58;98856.22;4934853;29;20046;-75
2022/01/03 00:23:51;;;;;;;0.63;0.50;;;;;;;10.70;70.10;98846.94;4934796;29;20031;-74
2022/01/03 00:26:24;;;;;;;0.68;0.68;;;;;;;10.69;70.16;98842.66;4934658;29;20036;-74
2022/01/03 00:28:58;;;;;;;1.48;0.40;;;;;;;10.64;70.94;98847.91;4933705;29;20377;-76
2022/01/03 00:31:33;;;;;;;0.70;0.70;;;;;;;10.57;70.47;98845.44;4934830;29;20023;-72
2022/01/03 00:33:59;;;;;;;1.95;0.50;;;;;;;10.49;71.36;98843.84;4933580;29;20032;-76
2022/01/03 00:36:27;;;;;;;0.35;0.35;;;;;;;10.85;69.65;98841.47;4932687;29;20022;-76
2022/01/03 00:38:54;;;;;;;2.10;0.90;;;;;;;10.75;69.15;98835.59;4926654;29;20098;-75
2022/01/03 00:41:22;;;;;;;0.32;0.32;;;;;;;10.66;69.72;98855.63;4934702;29;20023;-75
2022/01/03 00:43:48;;;;;;;0.57;0.55;;;;;;;10.55;70.56;98838.53;4934662;29;20036;-76
2022/01/03 00:46:17;;;;;;;4.25;0.57;;;;;;;10.90;68.11;98844.84;4934448;29;20393;-75
2022/01/03 00:48:43;;;;;;;0.50;0.50;;;;;;;10.93;68.14;98849.13;4934706;29;20034;-75
2022/01/03 00:51:09;;;;;;;0.32;0.32;;;;;;;10.85;69.12;98853.59;4934614;29;20032;-74
2022/01/03 00:53:34;;;;;;;0.40;0.40;;;;;;;10.78;68.81;98861.47;4934590;29;20095;-74
2022/01/03 00:56:02;;;;;;;1.17;1.00;;;;;;;10.73;69.04;98857.22;4934410;29;20544;-76
2022/01/03 00:58:35;;;;;;;0.47;0.47;;;;;;;10.89;67.51;98857.84;4934544;29;20032;-72
2022/01/03 05:15:52;;;;;;;2.22;0.70;;;;;;;9.41;82.63;98962.59;5694772;23;20044;-72
2022/01/03 05:18:18;;;;;;;0.77;0.77;;;;;;;9.23;84.96;98962.75;4915346;29;20040;-73
2022/01/03 05:20:43;;;;;;;0.40;0.40;;;;;;;9.07;85.71;98972.41;4915767;29;20489;-73
2022/01/03 05:23:09;;;;;;;3.88;1.75;;;;;;;9.09;87.27;98982.72;4916256;29;20023;-73
2022/01/03 05:25:34;;;;;;;0.70;0.40;;;;;;;9.04;87.31;98981.88;4919027;29;20027;-73
2022/01/03 05:27:59;;;;;;;0.90;0.80;;;;;;;9.08;88.37;98973.25;4959833;23;20832;-74
2022/01/03 05:30:25;;;;;;;1.00;0.50;;;;;;;8.97;88.98;98971.63;4938087;29;20040;-74
2022/01/03 05:32:50;;;;;;;1.65;0.95;;;;;;;9.05;89.06;98978.47;4937846;29;20070;-74
2022/01/03 05:35:16;;;;;;;0.40;0.40;;;;;;;8.95;89.55;98988.88;4937873;29;20038;-74
2022/01/03 05:37:41;;;;;;;0.63;0.63;;;;;;;8.93;89.53;98969.06;4937357;29;20027;-71
2022/01/03 05:40:07;;;;;;;0.43;0.43;;;;;;;8.66;92.29;98977.91;4919273;29;20498;-73
2022/01/03 05:42:32;;;;;;;0.35;0.35;;;;;;;8.66;92.63;98985.66;4918987;29;20032;-71
2022/01/03 05:44:58;;;;;;;0.50;0.50;;;;;;;8.80;91.58;98980.34;4918679;29;20028;-71
2022/01/03 05:47:24;;;;;;;0.68;0.68;;;;;;;8.82;91.26;98971.75;4918433;29;20036;-73
2022/01/03 05:49:49;;;;;;;0.45;0.45;;;;;;;8.71;93.00;98965.81;4918487;29;20024;-76
2022/01/03 05:52:15;;;;;;;0.55;0.55;;;;;;;8.79;91.22;98966.59;4918590;29;20036;-71
2022/01/03 05:54:40;;;;;;;0.30;0.30;;;;;;;8.51;93.32;98965.97;4917270;29;20032;-73
2022/01/03 05:57:06;;;;;;;0.45;0.45;;;;;;;8.49;94.92;98973.69;4918354;29;20028;-76
2022/01/03 05:59:31;;;;;;;0.40;0.40;;;;;;;8.39;96.56;98966.88;4918338;29;20035;-76
2022/01/03 06:01:56;;;;;;;0.40;0.40;;;;;;;8.37;96.51;98967.78;4918360;29;20028;-76
2022/01/03 06:04:24;;;;;;;0.30;0.30;;;;;;;8.35;97.82;98959.97;4918164;29;20063;-76
2022/01/03 06:07:07;;;;;;;0.30;0.30;;;;;;;8.30;97.88;98964.31;4928318;29;20477;-76
2022/01/03 06:09:32;;;;;;;0.52;0.50;;;;;;;8.29;97.85;98970.34;4923194;29;20425;-72
2022/01/03 06:12:00;;;;;;;2.30;2.10;;;;;;;8.06;99.79;98982.50;4918297;29;20021;-71
2022/01/03 06:14:27;;;;;;;0.85;0.80;;;;;;;8.19;98.56;98979.00;4918152;29;20024;-71
2022/01/03 06:16:53;;;;;;;0.80;0.77;;;;;;;8.32;98.79;98978.09;4917822;29;20588;-74
2022/01/03 06:19:19;;;;;;;0.82;0.52;;;;;;;8.27;99.40;98972.09;4917949;29;20115;-74
2022/01/03 06:21:45;;;;;;;3.33;0.70;;;;;;;8.20;98.84;98975.56;4918235;29;20032;-76
2022/01/03 06:24:16;;;;;;;0.57;0.55;;;;;;;8.14;100.00;98968.72;4918167;29;20393;-76
2022/01/03 06:26:43;;;;;;;1.27;0.80;;;;;;;8.09;100.00;98972.19;4917843;29;20024;-76
2022/01/03 06:29:09;;;;;;;0.50;0.50;;;;;;;8.08;100.00;98989.41;4917629;29;20032;-76
2022/01/03 06:31:35;;;;;;;0.50;0.50;;;;;;;8.13;100.00;98973.88;4917869;29;20394;-76
2022/01/03 06:34:00;;;;;;;0.93;0.93;;;;;;;8.13;100.00;98968.72;4917902;29;20052;-72
2022/01/03 06:36:26;;;;;;;13.55;1.33;;;;;;;8.06;100.00;98967.03;4924042;29;20058;-71
2022/01/03 06:38:52;;;;;;;0.90;0.75;;;;;;;8.03;100.00;98972.22;4926580;29;20024;-73
2022/01/03 06:41:17;;;;;;;0.60;0.60;;;;;;;7.99;100.00;98977.38;4917654;29;20040;-75
2022/01/03 06:43:43;;;;;;;0.75;0.75;;;;;;;8.04;100.00;98979.09;4917594;29;20557;-75
2022/01/03 06:46:09;;;;;;;0.82;0.82;;;;;;;8.03;100.00;98978.25;4917339;29;20486;-72
2022/01/03 06:48:34;;;;;;;0.63;0.63;;;;;;;7.97;100.00;98970.50;4917535;29;20024;-74
2022/01/03 06:50:59;;;;;;;0.88;0.88;;;;;;;7.94;100.00;98963.66;4917464;29;20024;-76
2022/01/03 06:53:25;;;;;;;0.47;0.47;;;;;;;7.93;100.00;98958.50;4917498;29;20538;-71
2022/01/03 06:55:50;;;;;;;0.75;0.75;;;;;;;7.93;100.00;98954.19;4917198;29;20040;-76
2022/01/03 06:58:15;;;;;;;1.55;0.85;;;;;;;7.95;100.00;98955.03;4917310;29;20063;-76
2022/01/03 07:00:41;;;;;;;1.35;0.75;;;;;;;7.86;100.00;98960.22;4917184;29;20212;-74
2022/01/03 07:03:06;;;;;;;1.58;1.48;;;;;;;7.76;100.00;98968.03;4917310;29;20099;-76
2022/01/03 07:05:32;;;;;;;0.40;0.40;;;;;;;7.80;100.00;98978.31;4917215;29;20032;-74
2022/01/03 07:07:59;;;;;;;0.60;0.60;;;;;;;7.77;100.00;98972.31;4934241;29;20481;-76
2022/01/03 07:10:24;;;;;;;0.47;0.47;;;;;;;7.72;100.00;98962.88;4917158;29;20107;-74
2022/01/03 07:12:51;;;;;;;1.38;0.90;;;;;;;7.78;100.00;98956.81;4917107;29;20103;-74
2022/01/03 07:20:47;;;;;;;1.33;1.05;;;;;;;7.82;100.00;98952.50;4917340;29;20038;-74
2022/01/03 07:23:13;;;;;;;1.42;1.33;;;;;;;7.81;100.00;98961.97;4916950;29;20056;-76
2022/01/03 07:25:38;;;;;;;0.70;0.70;;;;;;;7.79;100.00;98968.88;4916787;29;20448;-71
2022/01/03 07:28:04;;;;;;;1.02;1.02;;;;;;;7.79;100.00;98975.75;4916498;29;20120;-74
2022/01/03 07:30:29;;;;;;;0.80;0.80;;;;;;;7.73;100.00;98979.19;4916853;29;20024;-73
2022/01/03 07:32:55;;;;;;;0.80;0.80;;;;;;;7.75;100.00;98972.31;4916801;29;20028;-74
2022/01/03 07:35:21;;;;;;;1.85;1.02;;;;;;;7.75;100.00;98980.06;4916815;29;20489;-74
2022/01/03 07:37:46;;;;;;;1.58;1.27;;;;;;;7.76;100.00;98978.34;4933736;29;20082;-71
2022/01/03 07:40:12;;;;;;;2.55;2.35;;;;;;;7.70;100.00;98972.34;4916575;29;20111;-76
2022/01/03 07:42:37;;;;;;;1.38;1.30;;;;;;;7.70;100.00;98961.16;4916591;29;20394;-72
2022/01/03 07:45:03;;;;;;;0.93;0.93;;;;;;;7.72;100.00;98962.88;4916522;29;20035;-74
2022/01/03 07:47:28;;;;;;;0.95;0.90;;;;;;;7.77;100.00;98965.44;4915429;29;20080;-71
2022/01/03 07:49:54;;;;;;;0.82;0.82;;;;;;;7.77;100.00;98965.44;4916483;29;20449;-75
2022/01/03 07:52:19;;;;;;;0.57;0.57;;;;;;;7.71;100.00;98955.13;4916433;29;20032;-73
2022/01/03 07:54:45;;;;;;;1.13;0.60;;;;;;;7.64;100.00;98963.75;4916331;29;20031;-74
2022/01/03 07:57:11;;;;;;;0.30;0.30;;;;;;;7.66;100.00;98957.72;4916212;29;20112;-74
2022/01/03 07:59:36;;;;;;;0.90;0.90;;;;;;;7.63;100.00;98951.72;4916152;29;20127;-73
2022/01/03 08:02:02;;;;;;;2.30;1.65;;;;;;;7.60;100.00;98956.91;4861500;29;20045;-74
2022/01/03 08:04:27;;;;;;;1.42;1.33;;;;;;;7.60;100.00;98959.50;4896166;29;20111;-73
2022/01/03 08:06:53;;;;;;;2.60;1.15;;;;;;;7.61;100.00;98963.78;4906010;29;20040;-74
2022/01/03 08:09:18;;;;;;;2.97;2.03;;;;;;;7.64;100.00;98963.75;4896980;29;20025;-72
2022/01/03 08:11:43;;;;;;;1.45;1.35;;;;;;;7.67;100.00;98969.75;4897352;29;20033;-73
2022/01/03 08:14:09;;;;;;;5.90;0.80;;;;;;;7.72;100.00;98967.16;4897210;29;20100;-72
2022/01/03 08:16:35;;;;;;;0.80;0.80;;;;;;;7.76;100.00;98963.72;4897127;29;20057;-75
2022/01/03 08:19:00;;;;;;;1.40;1.35;;;;;;;7.76;100.00;98963.72;4897109;29;20123;-73
2022/01/03 08:21:25;;;;;;;2.40;2.15;;;;;;;7.70;100.00;98950.84;4897153;29;20033;-71
2022/01/03 08:23:51;;;;;;;3.10;2.05;;;;;;;7.72;100.00;98951.69;4896939;29;20040;-75
2022/01/03 08:26:17;;;;;;;2.72;2.38;;;;;;;7.82;100.00;98953.38;4896941;29;20032;-74
2022/01/03 08:28:42;;;;;;;1.55;1.45;;;;;;;7.79;100.00;98949.97;4901841;29;20040;-77
2022/01/03 08:31:08;;;;;;;1.23;1.20;;;;;;;7.79;100.00;98945.66;4897666;29;20080;-78
2022/01/03 08:33:33;;;;;;;4.15;2.03;;;;;;;7.76;100.00;98945.66;4898979;29;20099;-78
2022/01/03 08:35:59;;;;;;;1.80;1.25;;;;;;;7.72;100.00;98951.69;4900600;29;20136;-76
2022/01/03 08:38:25;;;;;;;2.63;1.48;;;;;;;7.71;100.00;98949.97;4910535;29;20021;-73
2022/01/03 08:40:51;;;;;;;1.23;1.13;;;;;;;7.83;100.00;98939.63;4896943;29;20107;-71
2022/01/03 08:43:16;;;;;;;3.28;1.85;;;;;;;7.99;100.00;98938.69;4896900;29;20111;-71
2022/01/03 08:45:41;;;;;;;1.40;1.23;;;;;;;8.08;100.00;98944.66;4848517;29;20124;-78
2022/01/03 08:48:07;;;;;;;1.70;1.60;;;;;;;8.12;100.00;98961.81;4896788;29;20104;-78
2022/01/03 08:50:32;;;;;;;18.75;4.63;;;;;;;8.45;100.00;98972.00;4896769;29;20035;-74
2022/01/03 08:52:57;;;;;;;1.30;1.15;;;;;;;8.11;100.00;98960.13;4896842;29;20033;-74
2022/01/03 08:55:23;;;;;;;0.40;0.40;;;;;;;8.34;100.00;98952.25;4896799;29;20458;-74
2022/01/03 08:57:51;;;;;;;0.95;0.95;;;;;;;8.29;100.00;98944.53;4901545;29;20031;-75
2022/01/03 09:00:18;;;;;;;1.13;0.93;;;;;;;8.39;100.00;98951.38;4911657;29;20549;-76
2022/01/03 09:02:43;;;;;;;1.35;1.15;;;;;;;8.52;100.00;98946.16;4919538;29;20441;-76
2022/01/03 09:05:09;;;;;;;1.10;0.77;;;;;;;8.64;100.00;98946.03;4919463;29;20021;-74
2022/01/03 09:07:34;;;;;;;2.05;0.70;;;;;;;8.67;100.00;98948.63;4919014;29;20092;-71
2022/01/03 09:09:59;;;;;;;3.40;1.65;;;;;;;8.92;100.00;98944.97;4901881;29;20406;-71
2022/01/03 09:12:25;;;;;;;0.70;0.70;;;;;;;8.91;100.00;98945.84;4900419;29;20399;-71
2022/01/03 09:14:50;;;;;;;0.82;0.82;;;;;;;8.65;100.00;98947.75;4900509;29;20474;-75
2022/01/03 09:17:15;;;;;;;1.60;1.50;;;;;;;8.59;100.00;98950.38;4900179;29;20125;-71
2022/01/03 09:19:41;;;;;;;7.15;1.70;;;;;;;8.88;100.00;98956.19;4900321;29;20036;-71
2022/01/03 09:22:18;;;;;;;0.60;0.60;;;;;;;8.95;100.00;98946.66;4900245;29;20093;-71
2022/01/03 09:24:47;;;;;;;0.73;0.65;;;;;;;8.81;100.00;98940.75;4900291;29;20021;-75
2022/01/03 09:30:01;;;;;;;0.80;0.70;;;;;;;8.81;100.00;98941.63;4909508;29;20541;-74
2022/01/03 09:32:26;;;;;;;4.20;1.52;;;;;;;9.04;100.00;98930.19;4918901;29;20529;-71
2022/01/03 09:34:51;;;;;;;1.42;1.17;;;;;;;9.42;100.00;98935.84;4918997;29;20024;-77
2022/01/03 09:37:20;;;;;;;0.70;0.70;;;;;;;9.68;100.00;98924.38;4918581;29;20076;-71
2022/01/03 09:39:46;;;;;;;0.70;0.70;;;;;;;9.80;99.45;98924.19;4903256;29;20032;-76
2022/01/03 09:42:14;;;;;;;2.35;1.48;;;;;;;9.76;98.95;98917.34;4899839;29;20083;-74
2022/01/03 09:44:42;;;;;;;3.80;2.08;;;;;;;9.75;98.85;98921.66;4899861;29;20035;-76
2022/01/03 09:47:10;;;;;;;0.85;0.85;;;;;;;9.65;99.03;98914.03;4899732;29;20491;-78
2022/01/03 09:49:38;;;;;;;1.35;0.88;;;;;;;9.75;98.63;98915.63;4899663;29;20035;-71
2022/01/03 09:52:05;;;;;;;1.55;0.80;;;;;;;9.80;99.08;98916.44;4899963;29;20055;-74
2022/01/03 09:54:31;;;;;;;3.25;1.00;;;;;;;9.70;100.00;98917.44;4899669;29;20029;-76
2022/01/03 09:57:00;;;;;;;2.25;1.52;;;;;;;9.79;100.00;98920.75;4899546;29;20466;-78
2022/01/03 09:59:27;;;;;;;4.63;0.95;;;;;;;9.70;100.00;98912.25;4911439;29;20024;-78
2022/01/03 10:01:53;;;;;;;0.60;0.60;;;;;;;9.76;100.00;98907.00;4916003;29;20497;-76
2022/01/03 10:04:19;;;;;;;1.23;0.85;;;;;;;9.57;100.00;98913.25;4918470;29;20044;-76
2022/01/03 10:06:44;;;;;;;0.55;0.55;;;;;;;9.74;97.72;98913.94;4918195;29;20027;-76
2022/01/03 10:09:10;;;;;;;2.95;1.10;;;;;;;9.70;98.57;98913.09;4906675;29;20029;-71
2022/01/03 10:11:35;;;;;;;2.83;1.52;;;;;;;9.66;97.20;98915.75;4898877;29;20497;-74
2022/01/03 10:14:01;;;;;;;4.18;1.00;;;;;;;9.53;99.75;98909.88;4854020;29;20132;-74
2022/01/03 10:16:30;;;;;;;3.55;1.17;;;;;;;9.73;96.99;98907.91;4899144;29;20080;-76
2022/01/03 10:18:57;;;;;;;2.25;0.93;;;;;;;9.73;95.17;98899.28;4899195;29;20029;-76
2022/01/03 10:21:38;;;;;;;0.40;0.40;;;;;;;9.93;92.55;98904.19;4899254;29;20036;-71
2022/01/03 10:24:05;;;;;;;1.13;0.90;;;;;;;10.00;90.94;98906.66;4899048;29;20461;-71
2022/01/03 10:26:31;;;;;;;0.60;0.60;;;;;;;10.11;86.98;98910.88;4900814;29;20398;-81
2022/01/03 10:29:14;;;;;;;2.08;0.70;;;;;;;10.09;82.07;98894.47;4910761;29;20096;-74
2022/01/03 10:31:44;;;;;;;0.38;0.38;;;;;;;10.20;82.98;98895.19;4913711;29;20036;-74
2022/01/03 10:34:13;;;;;;;0.47;0.47;;;;;;;10.25;83.17;98896.00;4916389;29;20490;-74
2022/01/03 10:36:40;;;;;;;0.52;0.40;;;;;;;10.32;79.28;98897.63;4917865;29;20039;-82
2022/01/03 10:39:34;;;;;;;0.65;0.65;;;;;;;10.31;79.41;98906.28;4907390;29;20047;-76
2022/01/03 10:42:17;;;;;;;2.20;1.50;;;;;;;10.29;80.05;98897.66;4897180;29;20597;-76
2022/01/03 10:44:44;;;;;;;0.77;0.50;;;;;;;10.30;77.68;98899.41;4898750;29;20036;-76
2022/01/03 10:47:14;;;;;;;0.40;0.40;;;;;;;10.32;77.72;98901.97;4899039;29;20463;-76
2022/01/03 10:49:39;;;;;;;;;;;;;;;10.32;77.36;98892.44;4899076;29;20035;-71
2022/01/03 10:52:19;;;;;;;0.82;0.82;;;;;;;10.33;78.02;98888.97;4898701;29;19911;-74
2022/01/03 10:55:06;;;;;;;0.35;0.35;;;;;;;10.35;75.95;98892.41;4898615;29;20024;-76
2022/01/03 10:58:04;;;;;;;0.82;0.60;;;;;;;10.43;77.50;98885.38;4900617;29;20059;-72
2022/01/03 11:00:42;;;;;;;0.60;0.40;;;;;;;10.48;76.79;98888.72;4899922;29;20047;-73
2022/01/03 11:03:32;;;;;;;5.82;1.33;;;;;;;10.49;77.23;98887.88;4898597;29;20517;-75
2022/01/03 11:05:58;;;;;;;0.45;0.45;;;;;;;10.59;74.39;98888.59;4900600;29;20087;-73
2022/01/03 11:11:12;;;;;;;0.40;0.40;;;;;;;10.69;74.45;98876.34;4898493;29;20623;-73
2022/01/03 11:13:42;;;;;;;0.60;0.60;;;;;;;10.71;74.45;98866.78;4898309;29;20471;-68
2022/01/03 11:16:08;;;;;;;;;;;;;;;10.77;74.01;98864.06;4898437;29;20545;-71
2022/01/03 11:18:35;;;;;;;0.30;0.30;;;;;;;10.82;74.18;98862.25;4898220;29;19917;-69
2022/01/03 11:21:17;;;;;;;0.40;0.40;;;;;;;10.89;75.19;98852.66;4897793;29;20083;-71
2022/01/03 11:23:47;;;;;;;5.93;2.05;;;;;;;10.84;76.27;98852.75;4897865;29;20027;-70
2022/01/03 11:26:16;;;;;;;0.68;0.52;;;;;;;10.86;74.44;98848.38;4897897;29;20116;-74
2022/01/03 11:28:43;;;;;;;0.40;0.40;;;;;;;11.01;74.39;98848.09;4914450;23;20413;-72
2022/01/03 11:31:10;;;;;;;2.40;1.20;;;;;;;10.93;74.06;98849.97;4879251;29;20363;-70
2022/01/03 11:33:37;;;;;;;1.70;0.40;;;;;;;11.03;72.74;98842.88;4877936;29;20474;-71
2022/01/03 11:36:03;;;;;;;0.30;0.30;;;;;;;11.07;73.16;98832.44;4880866;29;20043;-71
2022/01/03 11:38:30;;;;;;;0.77;0.77;;;;;;;11.10;73.07;98835.84;4878975;29;20025;-71
2022/01/03 11:41:05;;;;;;;0.80;0.43;;;;;;;11.10;72.69;98828.06;4879126;29;20075;-73
2022/01/03 11:43:33;;;;;;;0.60;0.45;;;;;;;11.11;72.39;98827.16;4831737;29;20043;-70
2022/01/03 11:45:59;;;;;;;0.40;0.40;;;;;;;11.17;73.46;98832.22;4878684;29;20075;-73
2022/01/03 11:48:26;;;;;;;0.85;0.63;;;;;;;11.13;73.61;98815.03;4893069;29;20048;-72
2022/01/03 11:50:53;;;;;;;2.35;1.80;;;;;;;11.20;73.44;98821.81;4879009;29;20065;-73
2022/01/03 11:53:20;;;;;;;6.22;0.88;;;;;;;11.16;71.32;98814.97;4878725;29;20047;-73
2022/01/03 11:55:50;;;;;;;3.50;0.52;;;;;;;11.17;72.80;98811.47;4878813;29;20447;-73
2022/01/03 11:58:28;;;;;;;13.27;5.95;;;;;;;11.20;73.56;98801.06;4878336;29;20027;-73
2022/01/03 12:03:51;;;;;;;0.57;0.30;;;;;;;11.12;71.93;98792.56;4879048;29;20113;-73
2022/01/03 12:06:26;;;;;;;0.60;0.60;;;;;;;11.11;73.34;98799.50;4880432;29;20044;-73
2022/01/03 12:09:00;;;;;;;0.45;0.45;;;;;;;11.12;71.37;98798.63;4892784;29;20036;-72
2022/01/03 12:11:27;;;;;;;1.08;0.95;;;;;;;11.21;70.31;98782.84;4879022;29;20028;-73
2022/01/03 12:14:10;;;;;;;6.93;3.80;;;;;;;11.35;71.06;98785.19;4878745;29;20166;-71
2022/01/03 12:16:50;;;;;;;0.50;0.40;;;;;;;11.35;71.30;98779.97;4878759;29;20108;-71
2022/01/03 12:19:40;;;;;;;2.10;0.35;;;;;;;11.47;69.51;98782.34;4878466;29;20033;-73
2022/01/03 12:22:12;;;;;;;0.38;0.38;;;;;;;11.46;69.25;98780.63;4878125;29;20040;-71
2022/01/03 12:24:52;;;;;;;0.82;0.82;;;;;;;11.50;68.73;98779.66;4878421;29;20032;-73
2022/01/03 12:27:21;;;;;;;0.40;0.40;;;;;;;11.36;69.09;98776.50;4878366;29;20081;-74
2022/01/03 12:29:55;;;;;;;1.77;0.43;;;;;;;11.47;69.27;98769.38;4878201;29;20024;-74
2022/01/03 12:32:24;;;;;;;0.30;0.30;;;;;;;11.34;66.67;98767.91;4892456;29;20047;-72
2022/01/03 12:35:12;;;;;;;0.93;0.68;;;;;;;11.35;64.42;98759.22;4878194;29;20399;-73
2022/01/03 12:37:43;;;;;;;0.30;0.28;;;;;;;11.35;63.76;98754.03;4879962;29;20048;-72
2022/01/03 12:40:09;;;;;;;0.93;0.90;;;;;;;11.27;63.56;98761.16;4878247;29;20047;-71
2022/01/03 12:42:50;;;;;;;0.30;0.30;;;;;;;11.31;62.48;98747.22;4878387;29;20035;-72
2022/01/03 12:45:29;;;;;;;0.30;0.30;;;;;;;11.36;62.49;98742.78;4878556;29;20037;-72
2022/01/03 12:48:10;;;;;;;0.40;0.40;;;;;;;11.35;63.30;98743.66;4878219;29;20044;-73
2022/01/03 12:50:40;;;;;;;0.43;0.43;;;;;;;11.36;62.80;98740.19;4878055;29;20166;-73
2022/01/03 12:53:06;;;;;;;;;;;;;;;11.37;62.66;98736.72;4878591;29;20052;-73
2022/01/03 12:55:38;;;;;;;0.50;0.50;;;;;;;11.37;62.18;98731.53;4892513;29;20338;-72
2022/01/03 12:58:19;;;;;;;0.30;0.30;;;;;;;11.35;62.74;98733.28;4878011;29;20032;-72
2022/01/03 13:00:59;;;;;;;0.40;0.40;;;;;;;11.30;63.13;98735.97;4877932;29;20017;-72
2022/01/03 13:03:27;;;;;;;0.28;0.28;;;;;;;11.30;64.53;98724.75;4878241;29;20032;-72
2022/01/03 13:06:11;;;;;;;10.18;2.60;;;;;;;11.23;63.24;98725.78;4860848;29;20401;-72
2022/01/03 13:08:43;;;;;;;0.30;0.30;;;;;;;11.24;63.66;98728.34;4896618;29;20482;-71
2022/01/03 13:11:12;;;;;;;0.30;0.30;;;;;;;11.29;63.90;98716.13;4896721;29;20510;-72
2022/01/03 13:13:39;;;;;;;1.65;1.13;;;;;;;11.30;64.49;98706.59;4896712;29;20032;-72
2022/01/03 13:16:29;;;;;;;0.30;0.30;;;;;;;11.31;64.19;98700.53;4911018;29;20035;-72
2022/01/03 13:19:04;;;;;;;1.63;0.45;;;;;;;11.28;65.04;98696.28;4896742;29;20025;-72
2022/01/03 13:21:35;;;;;;;0.40;0.40;;;;;;;11.36;65.22;98687.44;4896596;29;20032;-72
2022/01/03 13:24:06;;;;;;;2.60;0.75;;;;;;;11.41;64.87;98686.47;4896497;29;20497;-72
2022/01/03 13:26:32;;;;;;;0.30;0.30;;;;;;;11.36;64.86;98688.28;4896372;29;20540;-72
2022/01/03 13:29:00;;;;;;;4.40;1.60;;;;;;;11.36;65.79;98693.50;4857286;29;20098;-72
2022/01/03 13:31:27;;;;;;;0.85;0.70;;;;;;;11.29;66.47;98686.75;4877912;29;20131;-72
2022/01/03 13:34:01;;;;;;;1.85;0.50;;;;;;;11.33;64.86;98680.59;4785245;29;20045;-73
2022/01/03 13:36:34;;;;;;;1.00;0.95;;;;;;;11.47;65.32;98670.78;4877572;29;20092;-73
2022/01/03 13:39:06;;;;;;;0.30;0.30;;;;;;;11.49;65.39;98662.94;4877745;29;20028;-73
2022/01/03 13:41:35;;;;;;;0.30;0.30;;;;;;;11.40;64.89;98658.81;4892352;29;20502;-73
2022/01/03 13:44:00;;;;;;;0.43;0.43;;;;;;;11.36;64.64;98662.34;4833131;29;20410;-74
2022/01/03 13:49:13;;;;;;;0.40;0.40;;;;;;;11.36;65.42;98657.16;4881363;29;20043;-74
2022/01/03 13:51:47;;;;;;;0.30;0.30;;;;;;;11.38;64.40;98658.00;4881266;29;20030;-73
2022/01/03 13:54:24;;;;;;;1.10;0.98;;;;;;;11.28;64.22;98648.75;4881103;29;20052;-73
2022/01/03 13:56:50;;;;;;;0.30;0.30;;;;;;;11.31;65.32;98648.66;4880841;29;20029;-73
2022/01/03 13:59:16;;;;;;;0.30;0.30;;;;;;;11.36;64.06;98644.19;4880593;29;20036;-74
2022/01/03 14:01:43;;;;;;;0.40;0.40;;;;;;;11.35;63.47;98650.28;4895218;29;20024;-73
2022/01/03 14:04:09;;;;;;;2.17;0.50;;;;;;;11.36;63.12;98641.59;4835727;29;20069;-73
2022/01/03 14:06:34;;;;;;;0.32;0.32;;;;;;;11.31;63.95;98646.94;4896811;29;20487;-73
2022/01/03 14:09:09;;;;;;;1.10;1.02;;;;;;;11.37;64.38;98638.16;4880835;29;20035;-73
2022/01/03 14:11:35;;;;;;;0.20;0.20;;;;;;;11.45;63.93;98631.03;4880852;29;20032;-73
2022/01/03 14:14:12;;;;;;;5.57;2.97;;;;;;;11.41;63.64;98638.91;4880564;29;20543;-73
2022/01/03 14:17:00;;;;;;;0.85;0.85;;;;;;;11.39;63.29;98631.16;4880444;29;20063;-73
2022/01/03 14:19:27;;;;;;;1.00;0.50;;;;;;;11.43;63.55;98622.44;4880359;29;20112;-73
2022/01/03 14:21:54;;;;;;;0.40;0.40;;;;;;;11.35;63.17;98613.97;4833149;29;20029;-73
2022/01/03 14:24:23;;;;;;;0.50;0.50;;;;;;;11.37;63.06;98611.34;4880219;29;20032;-73
2022/01/03 14:26:58;;;;;;;0.57;0.57;;;;;;;11.30;63.30;98615.81;4880382;29;20483;-73
2022/01/03 14:29:36;;;;;;;0.30;0.30;;;;;;;11.32;63.96;98608.88;4879924;29;20038;-73
2022/01/03 14:32:13;;;;;;;0.75;0.57;;;;;;;11.29;62.96;98608.94;4880286;29;20072;-73
2022/01/03 14:34:48;;;;;;;0.52;0.35;;;;;;;11.30;63.75;98608.03;4880057;29;20024;-73
2022/01/03 14:37:28;;;;;;;0.30;0.30;;;;;;;11.25;62.97;98597.78;4881827;29;20061;-73
2022/01/03 14:39:54;;;;;;;0.40;0.40;;;;;;;11.29;62.28;98588.19;4834959;29;20028;-73
2022/01/03 14:42:22;;;;;;;0.30;0.30;;;;;;;11.24;64.11;98582.25;4880280;29;20025;-73
2022/01/03 14:44:48;;;;;;;0.40;0.40;;;;;;;11.18;63.49;98580.66;4880103;29;20107;-73
2022/01/03 14:47:14;;;;;;;1.42;0.60;;;;;;;11.18;63.03;98579.81;4879971;29;20036;-73
2022/01/03 14:49:54;;;;;;;2.17;0.90;;;;;;;11.23;64.02;98577.97;4879933;29;20025;-73
2022/01/03 14:52:33;;;;;;;0.50;0.50;;;;;;;11.15;63.41;98577.28;4879886;29;20391;-73
2022/01/03 14:54:59;;;;;;;0.40;0.40;;;;;;;11.15;63.56;98574.69;4879917;29;20037;-73
2022/01/03 14:57:27;;;;;;;3.10;2.67;;;;;;;11.11;63.25;98573.06;4879199;29;20085;-71
2022/01/03 14:59:57;;;;;;;0.88;0.88;;;;;;;11.05;63.79;98582.69;4879435;29;20021;-71
2022/01/03 15:02:22;;;;;;;0.35;0.35;;;;;;;11.08;64.73;98579.19;4834750;29;20100;-71
2022/01/03 15:04:48;;;;;;;0.40;0.40;;;;;;;11.01;64.66;98582.78;4879664;29;20040;-71
2022/01/03 15:07:15;;;;;;;2.20;0.88;;;;;;;11.27;62.92;98574.41;4881173;29;20028;-71
2022/01/03 15:09:41;;;;;;;0.40;0.40;;;;;;;11.20;64.29;98567.66;4879468;29;20037;-71
2022/01/03 15:12:07;;;;;;;0.40;0.40;;;;;;;10.97;65.41;98569.03;4879350;29;20032;-71
2022/01/03 15:14:32;;;;;;;0.95;0.32;;;;;;;10.98;63.19;98568.16;4879566;29;20073;-71
2022/01/03 15:16:58;;;;;;;0.95;0.95;;;;;;;10.92;64.67;98557.91;4879208;29;20029;-71
2022/01/03 15:19:24;;;;;;;0.30;0.30;;;;;;;10.81;64.44;98557.31;4879314;29;20064;-71
2022/01/03 15:21:49;;;;;;;0.40;0.40;;;;;;;11.04;63.76;98547.28;4879378;29;20044;-71
2022/01/03 15:24:15;;;;;;;1.17;1.10;;;;;;;10.74;65.10;98548.00;4879452;29;20037;-71
2022/01/03 15:26:41;;;;;;;1.30;0.75;;;;;;;10.69;65.46;98539.47;4879094;29;20029;-71
2022/01/03 15:29:06;;;;;;;2.83;1.92;;;;;;;10.73;64.32;98547.16;4879040;29;20045;-71
2022/01/03 15:31:31;;;;;;;1.98;0.68;;;;;;;10.78;64.23;98545.31;4879292;29;20390;-71
2022/01/03 15:33:57;;;;;;;7.93;0.82;;;;;;;10.81;64.02;98549.53;4879206;29;20422;-71
2022/01/03 15:36:24;;;;;;;0.40;0.30;;;;;;;10.77;64.85;98550.50;4880929;29;20029;-71
2022/01/03 15:38:49;;;;;;;0.30;0.30;;;;;;;10.68;64.98;98537.75;4878927;29;20052;-71
2022/01/03 15:41:15;;;;;;;0.50;0.50;;;;;;;10.89;65.03;98542.47;4879211;29;20108;-71
2022/01/03 15:43:40;;;;;;;0.30;0.30;;;;;;;10.84;64.64;98539.13;4879132;29;20040;-71
2022/01/03 15:46:06;;;;;;;0.30;0.30;;;;;;;10.68;64.20;98548.09;4878900;29;20044;-71
2022/01/03 15:48:31;;;;;;;0.40;0.40;;;;;;;10.79;65.37;98546.16;4878958;29;20489;-71
2022/01/03 15:50:57;;;;;;;0.45;0.32;;;;;;;10.70;64.60;98549.78;4879144;29;20040;-71
2022/01/03 15:53:23;;;;;;;0.40;0.40;;;;;;;10.65;64.37;98548.19;4878971;29;20024;-71
2022/01/03 15:55:48;;;;;;;0.30;0.30;;;;;;;10.73;64.14;98546.25;4878783;29;20025;-72
2022/01/03 15:58:15;;;;;;;0.30;0.30;;;;;;;10.64;65.29;98541.31;4878608;29;20036;-71
2022/01/03 16:00:41;;;;;;;1.73;1.38;;;;;;;10.71;63.86;98537.69;4878935;29;20037;-71
2022/01/03 16:03:07;;;;;;;2.40;0.65;;;;;;;10.82;64.45;98533.09;4893034;29;20394;-71
2022/01/03 16:05:33;;;;;;;2.45;1.17;;;;;;;10.67;63.63;98530.84;4878934;29;20076;-71
2022/01/03 16:08:00;;;;;;;0.65;0.65;;;;;;;10.70;63.54;98533.41;4879344;29;20032;-71
2022/01/03 16:10:27;;;;;;;0.52;0.52;;;;;;;10.72;62.49;98529.03;4878696;29;20052;-71
2022/01/03 16:12:54;;;;;;;0.40;0.40;;;;;;;10.78;62.69;98523.69;4878712;29;20029;-71